Wednesday, October 01, 2014
12:21 UTC
  |  Log In   |  Register Free
Airport Search:

Owosso Community Airport
(KRNP)

Owosso Community Airport Diagram
No Airport Diagram Available

FAA data valid effective September 18, 2014 - November 13, 2014 (unless otherwise noted).

 
 
 
 
 
 
 
 
 
 
 
 
 
 

Current Aviation Weather for Owosso Community Airport (KRNP)

The most recent METAR observation for KRNP was updated at: 1218
METAR Summary (Translated METAR)
KRNP
011120Z AUTO 00000KT 1/4SM FG OVC001 11/11 A3004 RMK AO2
KFNT
011202Z 00000KT 1/4SM FG VV002 12/11 A3005 RMK AO2 T01220111 RVRNO
(17.4 nm SE from KRNP)
KOZW
011155Z AUTO 00000KT 1/4SM FG OVC001 11/11 A3004 RMK AO2 T01090109 10112 20102
(22.9 nm SE from KRNP)
TAF Summary (Translated TAF)
KFNT
(17.4 nm SE from KRNP)
011120Z 0112/0212 VRB03KT 1/2SM FG VV002 FM011400 VRB04KT 4SM BR OVC006 FM011600 14005KT P6SM BKN020 BKN035 FM011900 14005KT P6SM SCT028 BKN040 FM020100 12004KT P6SM SCT035 FM020800 16004KT 3SM BR SCT008 BKN250
  Airport Weather Conditions for KRNP

 Current Weather at RNP
52° F
Fog
North winds at 0.0 mph
RNP NOAA Radar

Pressure: 30.04 in
Humidity: 100%
Wind: Calm
Dew Point: 51.8°F
Visibility: 0.25 mi


Airport Weather Forecast for KRNP

Translated METAR and TAF for KRNP
Translated METAR for KRNP (1216 UTC 01 October 2014)
found at http://aviationweather.gov/adds/metars/
 
METAR text: KRNP 011120Z AUTO 00000KT 1/4SM FG OVC001 11/11 A3004 RMK AO2
Conditions at: KRNP (OWOSSO , MI, US) observed 1120 UTC 01 October 2014
Temperature: 11.0°C (52°F)
Dewpoint: 11.0°C (52°F) [RH = 100%]
Pressure (altimeter): 30.04 inches Hg (1017.4 mb)
Winds: calm
Visibility: 0.25 miles (0.40 km)
Ceiling: 100 feet AGL
Clouds: overcast cloud deck at 100 feet AGL
Weather: FG  (fog)
Translated TAF for KRNP

There is no translated TAF available for this airport

Find All Airport Services Find A Hotel Find A Rental Car Find A Golf Course Find A Restaurant $100 Hamburger



FBO's on the Field
FBO Company Facility Photos Services Transportation Aviation Fuel Prices: Prices include tax
Catering Weather Repair Courtesy Rental Type 100LL JetA JetA+ MOGAS 8087
 
Owosso Community Airport

This FBO has not yet been rated
FS:Avfuel
Last Updated: Aug-21
Login to update fuel prices
SS:
Contact Owosso Community AirportMore FBO Information
 
Add another FBO Facility Photos Catering Weather Repair Courtesy Rental Type 100LL JetA JetA+ MOGAS 8087
Services Transportation Aviation Fuel Prices: Prices include tax


model-print
model-print
model-print
model-print